sensor_id;sensor_type;location;lat;lon;timestamp;P1;durP1;ratioP1;P2;durP2;ratioP2
40248;SDS011;25969;49.970;11.062;2022-11-20T05:10:23;42.40;;;15.97;;
40248;SDS011;25969;49.970;11.062;2022-11-20T05:20:28;36.53;;;16.30;;
40248;SDS011;25969;49.970;11.062;2022-11-20T05:30:29;25.50;;;11.97;;
40248;SDS011;25969;49.970;11.062;2022-11-20T05:40:30;32.73;;;15.43;;
40248;SDS011;25969;49.970;11.062;2022-11-20T05:50:30;35.40;;;15.37;;
40248;SDS011;25969;49.970;11.062;2022-11-20T06:00:31;41.57;;;18.03;;
40248;SDS011;25969;49.970;11.062;2022-11-20T06:10:32;36.00;;;16.13;;
40248;SDS011;25969;49.970;11.062;2022-11-20T06:20:33;42.60;;;17.13;;
40248;SDS011;25969;49.970;11.062;2022-11-20T06:30:34;44.27;;;18.30;;
40248;SDS011;25969;49.970;11.062;2022-11-20T06:40:35;36.25;;;15.68;;
40248;SDS011;25969;49.970;11.062;2022-11-20T06:50:36;43.17;;;17.60;;
40248;SDS011;25969;49.970;11.062;2022-11-20T07:00:37;38.80;;;16.55;;
40248;SDS011;25969;49.970;11.062;2022-11-20T07:10:38;35.40;;;15.73;;
40248;SDS011;25969;49.970;11.062;2022-11-20T07:20:38;32.73;;;14.40;;
40248;SDS011;25969;49.970;11.062;2022-11-20T07:30:39;47.00;;;20.63;;
40248;SDS011;25969;49.970;11.062;2022-11-20T07:40:40;32.70;;;14.90;;
40248;SDS011;25969;49.970;11.062;2022-11-20T07:50:41;32.40;;;15.47;;
40248;SDS011;25969;49.970;11.062;2022-11-20T08:00:42;43.20;;;19.47;;
40248;SDS011;25969;49.970;11.062;2022-11-20T08:10:43;41.00;;;18.63;;
40248;SDS011;25969;49.970;11.062;2022-11-20T08:20:43;56.53;;;25.07;;
40248;SDS011;25969;49.970;11.062;2022-11-20T08:30:45;34.67;;;15.03;;
40248;SDS011;25969;49.970;11.062;2022-11-20T08:40:46;53.37;;;26.80;;
40248;SDS011;25969;49.970;11.062;2022-11-20T08:51:06;44.77;;;23.20;;
40248;SDS011;25969;49.970;11.062;2022-11-20T09:01:07;35.80;;;18.80;;
40248;SDS011;25969;49.970;11.062;2022-11-20T09:11:08;39.13;;;18.73;;
40248;SDS011;25969;49.970;11.062;2022-11-20T09:21:09;42.83;;;18.30;;
40248;SDS011;25969;49.970;11.062;2022-11-20T09:31:23;15.93;;;8.77;;
40248;SDS011;25969;49.970;11.062;2022-11-20T10:01:31;36.17;;;17.90;;
40248;SDS011;25969;49.970;11.062;2022-11-20T10:21:57;42.70;;;17.83;;
40248;SDS011;25969;49.970;11.062;2022-11-20T10:32:04;37.70;;;17.17;;
40248;SDS011;25969;49.970;11.062;2022-11-20T10:42:12;37.87;;;19.83;;
40248;SDS011;25969;49.970;11.062;2022-11-20T10:52:20;50.20;;;26.50;;
40248;SDS011;25969;49.970;11.062;2022-11-20T11:12:43;46.67;;;20.07;;
40248;SDS011;25969;49.970;11.062;2022-11-20T11:22:48;40.57;;;18.53;;
40248;SDS011;25969;49.970;11.062;2022-11-20T11:32:50;45.30;;;20.27;;
40248;SDS011;25969;49.970;11.062;2022-11-20T11:43:04;37.93;;;16.53;;
40248;SDS011;25969;49.970;11.062;2022-11-20T11:53:26;37.40;;;17.50;;
40248;SDS011;25969;49.970;11.062;2022-11-20T12:03:32;39.27;;;18.83;;
40248;SDS011;25969;49.970;11.062;2022-11-20T12:13:44;39.80;;;17.83;;
40248;SDS011;25969;49.970;11.062;2022-11-20T12:34:27;34.07;;;17.20;;
40248;SDS011;25969;49.970;11.062;2022-11-20T13:26:23;29.53;;;13.60;;
40248;SDS011;25969;49.970;11.062;2022-11-20T13:36:25;26.13;;;13.83;;
40248;SDS011;25969;49.970;11.062;2022-11-20T13:46:41;30.80;;;14.50;;
40248;SDS011;25969;49.970;11.062;2022-11-20T14:06:59;37.27;;;14.10;;
40248;SDS011;25969;49.970;11.062;2022-11-20T14:17:07;35.93;;;16.47;;
40248;SDS011;25969;49.970;11.062;2022-11-20T14:27:13;41.73;;;17.87;;
40248;SDS011;25969;49.970;11.062;2022-11-20T14:37:23;31.70;;;15.33;;
40248;SDS011;25969;49.970;11.062;2022-11-20T14:47:27;31.70;;;13.67;;
40248;SDS011;25969;49.970;11.062;2022-11-20T14:57:31;35.67;;;16.97;;
40248;SDS011;25969;49.970;11.062;2022-11-20T15:07:36;34.03;;;14.27;;
40248;SDS011;25969;49.970;11.062;2022-11-20T15:17:40;25.77;;;12.60;;
40248;SDS011;25969;49.970;11.062;2022-11-20T15:27:41;27.37;;;12.37;;
40248;SDS011;25969;49.970;11.062;2022-11-20T15:37:43;26.77;;;11.00;;
40248;SDS011;25969;49.970;11.062;2022-11-20T15:47:43;26.90;;;12.23;;
40248;SDS011;25969;49.970;11.062;2022-11-20T15:57:44;24.67;;;10.67;;
40248;SDS011;25969;49.970;11.062;2022-11-20T16:07:45;25.13;;;10.63;;
40248;SDS011;25969;49.970;11.062;2022-11-20T16:17:46;22.40;;;10.00;;
40248;SDS011;25969;49.970;11.062;2022-11-20T16:27:47;16.83;;;8.57;;
40248;SDS011;25969;49.970;11.062;2022-11-20T16:37:47;15.03;;;7.47;;
40248;SDS011;25969;49.970;11.062;2022-11-20T16:47:48;11.10;;;5.83;;
40248;SDS011;25969;49.970;11.062;2022-11-20T16:57:49;17.37;;;7.70;;
40248;SDS011;25969;49.970;11.062;2022-11-20T17:07:50;13.27;;;6.80;;
40248;SDS011;25969;49.970;11.062;2022-11-20T17:17:50;14.43;;;7.27;;
40248;SDS011;25969;49.970;11.062;2022-11-20T17:27:51;17.43;;;7.27;;
40248;SDS011;25969;49.970;11.062;2022-11-20T17:47:53;14.70;;;7.90;;
40248;SDS011;25969;49.970;11.062;2022-11-20T17:57:54;8.63;;;4.17;;
40248;SDS011;25969;49.970;11.062;2022-11-20T18:07:57;8.17;;;4.53;;
40248;SDS011;25969;49.970;11.062;2022-11-20T18:17:58;10.13;;;4.47;;
40248;SDS011;25969;49.970;11.062;2022-11-20T18:27:58;11.63;;;5.33;;
40248;SDS011;25969;49.970;11.062;2022-11-20T18:37:59;20.47;;;8.07;;
40248;SDS011;25969;49.970;11.062;2022-11-20T18:48:00;11.13;;;5.53;;
40248;SDS011;25969;49.970;11.062;2022-11-20T18:58:01;17.03;;;8.00;;
40248;SDS011;25969;49.970;11.062;2022-11-20T19:08:01;22.17;;;10.40;;
40248;SDS011;25969;49.970;11.062;2022-11-20T19:18:02;18.87;;;9.67;;
40248;SDS011;25969;49.970;11.062;2022-11-20T19:28:03;17.23;;;9.10;;
40248;SDS011;25969;49.970;11.062;2022-11-20T19:38:04;8.90;;;4.47;;
40248;SDS011;25969;49.970;11.062;2022-11-20T19:48:05;13.20;;;7.07;;
40248;SDS011;25969;49.970;11.062;2022-11-20T19:58:06;7.10;;;3.57;;
40248;SDS011;25969;49.970;11.062;2022-11-20T20:08:06;8.60;;;4.80;;
40248;SDS011;25969;49.970;11.062;2022-11-20T20:18:07;10.03;;;5.20;;
40248;SDS011;25969;49.970;11.062;2022-11-20T20:28:08;12.27;;;5.53;;
40248;SDS011;25969;49.970;11.062;2022-11-20T20:38:08;12.20;;;5.23;;
40248;SDS011;25969;49.970;11.062;2022-11-20T20:48:09;8.37;;;4.57;;
40248;SDS011;25969;49.970;11.062;2022-11-20T20:58:10;7.93;;;5.00;;
40248;SDS011;25969;49.970;11.062;2022-11-20T21:08:11;9.53;;;2.90;;
40248;SDS011;25969;49.970;11.062;2022-11-20T21:18:21;3.57;;;2.07;;
40248;SDS011;25969;49.970;11.062;2022-11-20T21:38:24;7.47;;;2.80;;
40248;SDS011;25969;49.970;11.062;2022-11-20T21:48:26;5.37;;;2.43;;
40248;SDS011;25969;49.970;11.062;2022-11-20T21:58:28;6.20;;;3.53;;
40248;SDS011;25969;49.970;11.062;2022-11-20T22:08:29;5.90;;;3.77;;
40248;SDS011;25969;49.970;11.062;2022-11-20T22:18:30;5.80;;;3.37;;
40248;SDS011;25969;49.970;11.062;2022-11-20T22:28:31;6.03;;;3.27;;
40248;SDS011;25969;49.970;11.062;2022-11-20T22:38:33;6.77;;;3.50;;
40248;SDS011;25969;49.970;11.062;2022-11-20T22:48:35;6.77;;;3.20;;
40248;SDS011;25969;49.970;11.062;2022-11-20T22:58:37;4.87;;;3.20;;
